createdAt,value
2019-04-06T00:01:59.625Z,34.30
2019-04-06T00:04:29.096Z,36.28
2019-04-06T00:06:58.634Z,32.73
2019-04-06T00:09:28.245Z,35.10
2019-04-06T00:11:58.512Z,35.25
2019-04-06T00:14:27.990Z,32.42
2019-04-06T00:16:57.444Z,34.55
2019-04-06T00:19:27.012Z,34.40
2019-04-06T00:21:57.097Z,37.35
2019-04-06T00:24:26.558Z,33.35
2019-04-06T00:26:56.136Z,35.20
2019-04-06T00:29:25.812Z,33.85
2019-04-06T00:32:26.264Z,35.23
2019-04-06T00:34:55.762Z,36.33
2019-04-06T00:37:25.359Z,34.78
2019-04-06T00:39:56.698Z,34.90
2019-04-06T00:42:25.795Z,37.13
2019-04-06T00:44:56.090Z,34.83
2019-04-06T00:47:25.829Z,36.35
2019-04-06T00:49:55.445Z,35.65
2019-04-06T00:52:25.035Z,36.48
2019-04-06T00:54:54.780Z,35.35
2019-04-06T00:57:24.295Z,35.98
2019-04-06T00:59:53.709Z,33.75
2019-04-06T01:02:23.270Z,33.88
2019-04-06T01:05:00.246Z,36.58
2019-04-06T01:07:30.066Z,35.55
2019-04-06T01:11:40.782Z,36.28
2019-04-06T01:12:31.022Z,35.25
2019-04-06T01:15:00.576Z,38.00
2019-04-06T01:17:30.033Z,36.93
2019-04-06T01:19:59.613Z,34.83
2019-04-06T01:22:29.106Z,39.58
2019-04-06T01:24:58.725Z,38.00
2019-04-06T01:27:27.967Z,37.10
2019-04-06T01:30:00.598Z,37.58
2019-04-06T01:35:19.816Z,35.15
2019-04-06T01:37:49.373Z,36.98
2019-04-06T01:40:18.992Z,37.65
2019-04-06T01:42:48.583Z,37.65
2019-04-06T01:45:18.538Z,35.90
2019-04-06T01:47:48.240Z,38.30
2019-04-06T01:50:18.498Z,40.28
2019-04-06T01:52:51.232Z,37.58
2019-04-06T01:55:20.670Z,37.67
2019-04-06T01:57:50.907Z,39.50
2019-04-06T02:00:25.379Z,37.95
2019-04-06T02:02:55.464Z,36.75
2019-04-06T02:05:29.719Z,38.30
2019-04-06T02:07:59.899Z,39.58
2019-04-06T02:10:29.694Z,40.12
2019-04-06T02:13:00.487Z,39.63
2019-04-06T02:15:30.484Z,40.15
2019-04-06T02:18:00.526Z,39.67
2019-04-06T02:20:30.097Z,38.20
2019-04-06T02:22:59.775Z,39.25
2019-04-06T02:25:28.991Z,43.42
2019-04-06T02:27:59.090Z,41.30
2019-04-06T02:30:41.627Z,37.50
2019-04-06T02:33:25.246Z,38.85
2019-04-06T02:36:17.422Z,39.67
2019-04-06T02:39:06.008Z,40.83
2019-04-06T02:41:45.035Z,38.90
2019-04-06T02:44:15.098Z,40.88
2019-04-06T02:46:46.064Z,40.10
2019-04-06T02:49:15.377Z,43.58
2019-04-06T02:51:44.983Z,41.58
2019-04-06T02:54:14.683Z,39.58
2019-04-06T02:56:47.326Z,42.78
2019-04-06T02:59:15.357Z,43.60
2019-04-06T03:01:45.134Z,41.65
2019-04-06T03:04:14.651Z,41.73
2019-04-06T03:06:44.088Z,42.98
2019-04-06T03:09:13.863Z,44.27
2019-04-06T03:11:43.205Z,42.48
2019-04-06T03:14:13.067Z,42.55
2019-04-06T03:16:44.532Z,43.58
2019-04-06T03:19:15.434Z,44.18
2019-04-06T03:21:45.229Z,45.00
2019-04-06T03:24:14.948Z,46.13
2019-04-06T03:26:59.221Z,45.15
2019-04-06T03:29:17.525Z,46.58
2019-04-06T03:31:47.069Z,42.50
2019-04-06T03:34:20.622Z,47.43
2019-04-06T03:36:48.501Z,46.75
2019-04-06T03:39:18.186Z,44.67
2019-04-06T03:41:47.668Z,42.75
2019-04-06T03:44:16.963Z,46.55
2019-04-06T03:46:46.637Z,43.42
2019-04-06T03:49:16.193Z,42.62
2019-04-06T03:51:45.848Z,43.87
2019-04-06T03:54:15.064Z,42.30
2019-04-06T03:56:44.593Z,42.85
2019-04-06T03:59:14.037Z,43.13
2019-04-06T04:01:43.643Z,42.75
2019-04-06T04:04:13.155Z,46.45
2019-04-06T04:06:42.492Z,46.83
2019-04-06T04:09:11.953Z,41.65
2019-04-06T04:11:41.227Z,44.50
2019-04-06T04:14:10.651Z,44.65
2019-04-06T04:16:40.122Z,42.03
2019-04-06T04:19:11.246Z,42.00
2019-04-06T04:21:40.571Z,45.63
2019-04-06T04:24:09.873Z,47.00
2019-04-06T04:26:39.176Z,45.98
2019-04-06T04:29:09.120Z,46.80
2019-04-06T04:31:38.563Z,43.35
2019-04-06T04:34:08.010Z,42.30
2019-04-06T04:36:37.479Z,42.27
2019-04-06T04:39:08.286Z,43.33
2019-04-06T04:41:39.811Z,42.78
2019-04-06T04:51:07.320Z,46.25
2019-04-06T04:57:41.695Z,42.58
2019-04-06T05:02:52.424Z,42.50
2019-04-06T05:05:26.393Z,44.25
2019-04-06T05:07:55.768Z,40.63
2019-04-06T05:10:29.656Z,43.38
2019-04-06T05:12:58.775Z,42.40
2019-04-06T05:16:21.749Z,41.35
2019-04-06T05:18:55.648Z,40.90
2019-04-06T05:21:24.982Z,41.48
2019-04-06T05:23:57.392Z,43.13
2019-04-06T05:26:37.149Z,41.73
2019-04-06T05:28:58.360Z,41.75
2019-04-06T05:31:27.332Z,42.50
2019-04-06T05:33:56.487Z,43.92
2019-04-06T05:36:25.551Z,44.10
2019-04-06T05:38:54.486Z,41.73
2019-04-06T05:41:23.572Z,41.37
2019-04-06T05:43:52.724Z,45.40
2019-04-06T05:46:21.863Z,41.45
2019-04-06T05:48:51.361Z,44.23
2019-04-06T05:51:20.982Z,43.83
2019-04-06T05:53:50.009Z,42.40
2019-04-06T05:56:19.468Z,41.60
2019-04-06T05:58:48.649Z,41.53
2019-04-06T06:01:17.720Z,43.08
2019-04-06T06:03:46.850Z,40.73
2019-04-06T06:06:15.955Z,40.73
2019-04-06T06:08:45.351Z,42.62
2019-04-06T06:11:14.422Z,41.58
2019-04-06T06:13:43.863Z,42.17
2019-04-06T06:16:13.451Z,41.05
2019-04-06T06:18:43.139Z,41.88
2019-04-06T06:21:12.300Z,42.23
2019-04-06T06:23:42.246Z,39.85
2019-04-06T06:26:11.642Z,42.25
2019-04-06T06:28:40.760Z,40.20
2019-04-06T06:31:10.087Z,43.05
2019-04-06T06:33:39.170Z,41.13
2019-04-06T06:36:08.314Z,42.98
2019-04-06T06:38:39.236Z,41.80
2019-04-06T06:41:09.890Z,41.20
2019-04-06T06:43:39.101Z,41.48
2019-04-06T06:46:08.175Z,43.45
2019-04-06T06:48:37.239Z,41.50
2019-04-06T06:51:06.568Z,43.02
2019-04-06T06:53:35.599Z,42.55
2019-04-06T06:56:04.997Z,42.05
2019-04-06T06:58:34.050Z,42.88
2019-04-06T07:01:03.603Z,43.68
2019-04-06T07:03:32.934Z,38.67
2019-04-06T07:06:02.065Z,42.35
2019-04-06T07:08:31.198Z,41.80
2019-04-06T07:11:00.320Z,40.85
2019-04-06T07:13:29.291Z,39.95
2019-04-06T07:15:58.807Z,41.95
2019-04-06T07:18:27.962Z,41.70
2019-04-06T07:20:57.115Z,43.68
2019-04-06T07:23:26.131Z,43.25
2019-04-06T07:25:58.329Z,43.10
2019-04-06T07:28:37.071Z,43.17
2019-04-06T07:30:56.992Z,43.05
2019-04-06T07:33:26.107Z,42.85
2019-04-06T07:35:55.158Z,46.08
2019-04-06T07:38:24.509Z,44.13
2019-04-06T07:40:53.895Z,43.87
2019-04-06T07:43:23.827Z,45.48
2019-04-06T07:45:53.303Z,45.80
2019-04-06T07:48:22.395Z,41.60
2019-04-06T07:50:51.550Z,47.08
2019-04-06T07:53:20.548Z,43.83
2019-04-06T07:55:49.658Z,47.60
2019-04-06T07:58:18.929Z,45.45
2019-04-06T08:00:48.175Z,46.40
2019-04-06T08:03:17.177Z,46.18
2019-04-06T08:05:46.321Z,45.12
2019-04-06T08:08:15.458Z,44.93
2019-04-06T08:10:44.567Z,43.30
2019-04-06T08:13:13.630Z,45.15
2019-04-06T08:15:42.593Z,44.77
2019-04-06T08:18:11.718Z,46.18
2019-04-06T08:20:40.931Z,46.08
2019-04-06T08:23:10.058Z,43.90
2019-04-06T08:25:40.554Z,46.95
2019-04-06T08:28:09.626Z,45.95
2019-04-06T08:30:45.411Z,47.83
2019-04-06T08:33:09.525Z,45.28
2019-04-06T08:35:38.701Z,46.20
2019-04-06T08:38:07.613Z,45.80
2019-04-06T08:40:36.689Z,44.45
2019-04-06T08:43:05.758Z,48.73
2019-04-06T08:45:34.806Z,44.18
2019-04-06T08:48:03.731Z,46.13
2019-04-06T08:50:32.799Z,48.25
2019-04-06T08:53:01.991Z,43.85
2019-04-06T08:55:31.227Z,46.83
2019-04-06T08:58:00.234Z,44.98
2019-04-06T09:00:29.451Z,45.45
2019-04-06T09:02:58.486Z,46.50
2019-04-06T09:05:28.019Z,45.40
2019-04-06T09:07:57.043Z,47.80
2019-04-06T09:10:26.114Z,46.00
2019-04-06T09:12:55.041Z,46.13
2019-04-06T09:15:24.259Z,44.10
2019-04-06T09:17:53.474Z,45.00
2019-04-06T09:20:22.432Z,42.65
2019-04-06T09:22:51.638Z,44.53
2019-04-06T09:25:20.621Z,45.73
2019-04-06T09:27:49.737Z,46.23
2019-04-06T09:30:19.022Z,45.70
2019-04-06T09:32:48.079Z,46.70
2019-04-06T09:35:17.139Z,44.23
2019-04-06T09:37:46.141Z,45.87
2019-04-06T09:40:15.497Z,46.47
2019-04-06T09:42:44.929Z,43.40
2019-04-06T09:45:30.358Z,44.47
2019-04-06T09:48:27.244Z,44.20
2019-04-06T09:51:24.262Z,42.30
2019-04-06T09:54:30.599Z,45.10
2019-04-06T09:57:08.481Z,42.20
2019-04-06T10:00:08.671Z,44.50
2019-04-06T10:03:11.818Z,44.87
2019-04-06T10:05:59.934Z,44.40
2019-04-06T10:08:57.367Z,43.03
2019-04-06T10:11:36.180Z,43.10
2019-04-06T10:14:21.872Z,43.90
2019-04-06T10:17:12.768Z,43.43
2019-04-06T10:20:09.898Z,45.10
2019-04-06T10:22:54.021Z,44.57
2019-04-06T10:25:51.155Z,45.67
2019-04-06T10:28:45.122Z,44.47
2019-04-06T10:31:36.305Z,44.93
2019-04-06T10:34:31.227Z,45.17
2019-04-06T10:37:21.411Z,43.93
2019-04-06T10:39:55.921Z,42.97
2019-04-06T10:42:50.413Z,41.10
2019-04-06T10:45:32.954Z,42.10
2019-04-06T10:48:21.116Z,44.70
2019-04-06T10:51:07.118Z,42.53
2019-04-06T10:53:58.669Z,45.70
2019-04-06T10:56:55.765Z,42.80
2019-04-06T11:00:00.598Z,43.57
2019-04-06T11:02:39.806Z,45.47
2019-04-06T11:05:27.497Z,44.27
2019-04-06T11:08:24.871Z,44.20
2019-04-06T11:11:04.930Z,43.93
2019-04-06T11:13:45.630Z,44.77
2019-04-06T11:16:49.324Z,43.40
2019-04-06T11:19:26.798Z,44.07
2019-04-06T11:22:08.525Z,43.23
2019-04-06T11:25:02.730Z,40.37
2019-04-06T11:27:50.826Z,42.13
2019-04-06T11:30:26.553Z,42.40
2019-04-06T11:33:26.749Z,43.30
2019-04-06T11:36:10.722Z,37.63
2019-04-06T11:38:57.361Z,37.43
2019-04-06T11:41:48.865Z,37.73
2019-04-06T11:44:40.298Z,40.37
2019-04-06T11:47:31.995Z,38.73
2019-04-06T11:50:17.882Z,39.80
2019-04-06T11:53:05.820Z,39.87
2019-04-06T11:55:52.814Z,41.13
2019-04-06T11:58:56.312Z,40.07
2019-04-06T12:01:33.631Z,39.90
2019-04-06T12:04:23.549Z,39.57
2019-04-06T12:07:20.851Z,40.80
2019-04-06T12:09:56.031Z,40.93
2019-04-06T12:12:39.530Z,39.10
2019-04-06T12:15:31.198Z,41.20
2019-04-06T12:18:19.449Z,40.43
2019-04-06T12:21:13.323Z,42.37
2019-04-06T12:24:10.364Z,42.90
2019-04-06T12:26:57.435Z,42.70
2019-04-06T12:29:40.530Z,39.13
2019-04-06T12:32:27.674Z,39.87
2019-04-06T12:35:05.853Z,44.37
2019-04-06T12:37:44.672Z,41.00
2019-04-06T12:40:31.623Z,40.93
2019-04-06T12:43:20.046Z,42.73
2019-04-06T12:46:06.008Z,41.07
2019-04-06T12:48:53.097Z,40.53
2019-04-06T12:51:35.467Z,41.77
2019-04-06T12:54:22.582Z,44.67
2019-04-06T12:57:00.255Z,44.20
2019-04-06T12:59:51.296Z,42.13
2019-04-06T13:02:38.575Z,42.00
2019-04-06T13:05:25.914Z,42.50
2019-04-06T13:08:07.514Z,40.27
2019-04-06T13:10:55.667Z,41.70
2019-04-06T13:13:38.088Z,41.23
2019-04-06T13:16:22.202Z,41.10
2019-04-06T13:19:05.498Z,42.57
2019-04-06T13:22:03.121Z,40.50
2019-04-06T13:24:55.324Z,39.30
2019-04-06T13:27:34.788Z,37.57
2019-04-06T13:30:13.933Z,39.57
2019-04-06T13:32:51.173Z,38.83
2019-04-06T13:35:32.270Z,38.07
2019-04-06T13:38:15.176Z,42.30
2019-04-06T13:41:12.447Z,39.07
2019-04-06T13:43:54.610Z,40.27
2019-04-06T13:46:48.621Z,40.57
2019-04-06T13:49:27.135Z,39.20
2019-04-06T13:52:05.431Z,39.00
2019-04-06T13:54:59.491Z,40.70
2019-04-06T13:57:39.660Z,41.10
2019-04-06T14:00:34.462Z,41.50
2019-04-06T14:03:24.697Z,37.97
2019-04-06T14:06:19.225Z,40.60
2019-04-06T14:09:09.515Z,41.50
2019-04-06T14:11:46.244Z,40.80
2019-04-06T14:14:37.045Z,41.13
2019-04-06T14:17:24.027Z,41.00
2019-04-06T14:20:11.090Z,40.67
2019-04-06T14:23:02.612Z,36.93
2019-04-06T14:25:44.592Z,40.37
2019-04-06T14:28:32.090Z,40.07
2019-04-06T14:31:32.081Z,38.50
2019-04-06T14:34:20.317Z,40.17
2019-04-06T14:37:10.461Z,36.27
2019-04-06T14:40:01.504Z,39.30
2019-04-06T14:42:37.504Z,41.00
2019-04-06T14:45:26.540Z,39.73
2019-04-06T14:48:17.883Z,39.20
2019-04-06T14:51:12.689Z,36.37
2019-04-06T14:53:52.444Z,36.33
2019-04-06T14:56:30.101Z,34.87
2019-04-06T14:59:27.215Z,35.13
2019-04-06T15:02:07.211Z,32.20
2019-04-06T15:04:53.919Z,32.50
2019-04-06T15:07:40.672Z,31.27
2019-04-06T15:10:18.735Z,33.37
2019-04-06T15:13:16.288Z,32.43
2019-04-06T15:16:16.402Z,33.60
2019-04-06T15:18:59.145Z,36.13
2019-04-06T15:21:36.291Z,31.80
2019-04-06T15:24:21.172Z,32.80
2019-04-06T15:27:01.054Z,33.30
2019-04-06T15:29:49.865Z,33.20
2019-04-06T15:32:38.170Z,33.70
2019-04-06T15:35:14.492Z,35.80
2019-04-06T15:38:12.957Z,35.67
2019-04-06T15:41:04.866Z,33.30
2019-04-06T15:43:50.589Z,36.00
2019-04-06T15:46:34.603Z,38.23
2019-04-06T15:49:20.853Z,36.43
2019-04-06T15:52:15.559Z,36.10
2019-04-06T15:54:48.004Z,38.20
2019-04-06T15:57:42.060Z,40.60
2019-04-06T16:00:21.851Z,40.60
2019-04-06T16:03:01.640Z,41.90
2019-04-06T16:06:07.948Z,41.20
2019-04-06T16:08:54.640Z,41.53
2019-04-06T16:11:45.724Z,40.70
2019-04-06T16:14:23.696Z,39.60
2019-04-06T16:17:10.676Z,38.03
2019-04-06T16:19:58.161Z,37.50
2019-04-06T16:22:45.131Z,35.23
2019-04-06T16:25:36.185Z,38.17
2019-04-06T16:28:13.072Z,37.53
2019-04-06T16:30:47.898Z,35.63
2019-04-06T16:33:38.979Z,37.20
2019-04-06T16:36:16.949Z,35.43
2019-04-06T16:38:54.921Z,37.03
2019-04-06T16:41:40.551Z,40.73
2019-04-06T16:44:31.553Z,40.70
2019-04-06T16:47:19.643Z,41.17
2019-04-06T16:50:02.136Z,39.87
2019-04-06T16:52:58.998Z,37.67
2019-04-06T16:55:43.097Z,41.20
2019-04-06T16:58:30.498Z,37.40
2019-04-06T17:01:10.200Z,37.80
2019-04-06T17:03:45.657Z,40.87
2019-04-06T17:06:37.212Z,39.90
2019-04-06T17:09:12.290Z,42.50
2019-04-06T17:11:52.264Z,40.13
2019-04-06T17:14:49.317Z,39.07
2019-04-06T17:17:37.549Z,38.80
2019-04-06T17:20:16.074Z,39.57
2019-04-06T17:23:02.736Z,36.50
2019-04-06T17:25:50.168Z,38.93
2019-04-06T17:28:36.923Z,37.00
2019-04-06T17:31:16.250Z,40.10
2019-04-06T17:33:59.546Z,39.43
2019-04-06T17:36:42.805Z,36.40
2019-04-06T17:39:37.293Z,38.67
2019-04-06T17:42:28.932Z,39.63
2019-04-06T17:45:27.679Z,34.70
2019-04-06T17:48:16.232Z,36.70
2019-04-06T17:51:10.225Z,37.90
2019-04-06T17:54:07.509Z,37.37
2019-04-06T17:56:43.565Z,39.57
2019-04-06T17:59:35.018Z,38.40
2019-04-06T18:02:29.282Z,35.80
2019-04-06T18:05:20.481Z,37.80
2019-04-06T18:08:07.584Z,37.23
2019-04-06T18:11:11.143Z,35.90
2019-04-06T18:13:46.196Z,36.80
2019-04-06T18:16:15.910Z,38.37
2019-04-06T18:18:45.649Z,37.23
2019-04-06T18:21:15.575Z,38.37
2019-04-06T18:23:47.121Z,38.77
2019-04-06T18:26:19.927Z,39.43
2019-04-06T18:28:50.822Z,38.13
2019-04-06T18:31:39.369Z,37.47
2019-04-06T18:34:09.255Z,48.63
2019-04-06T18:37:10.111Z,44.90
2019-04-06T18:39:39.560Z,43.80
2019-04-06T18:42:08.782Z,40.13
2019-04-06T18:44:38.512Z,39.37
2019-04-06T18:47:07.874Z,43.37
2019-04-06T18:49:37.480Z,39.70
2019-04-06T18:52:07.346Z,41.37
2019-04-06T18:54:36.997Z,40.13
2019-04-06T18:57:06.526Z,39.63
2019-04-06T18:59:35.872Z,43.10
2019-04-06T19:02:05.382Z,41.27
2019-04-06T19:04:34.700Z,39.47
2019-04-06T19:07:04.979Z,39.67
2019-04-06T19:09:35.044Z,38.80
2019-04-06T19:12:04.749Z,41.00
2019-04-06T19:14:34.127Z,41.17
2019-04-06T19:17:03.611Z,40.40
2019-04-06T19:19:33.264Z,41.67
2019-04-06T19:22:02.618Z,41.03
2019-04-06T19:24:31.983Z,39.57
2019-04-06T19:27:01.246Z,38.80
2019-04-06T19:29:30.486Z,38.93
2019-04-06T19:32:00.218Z,38.63
2019-04-06T19:34:29.879Z,40.50
2019-04-06T19:36:59.180Z,43.97
2019-04-06T19:39:29.026Z,39.43
2019-04-06T19:41:58.393Z,38.60
2019-04-06T19:44:28.091Z,40.00
2019-04-06T19:46:57.511Z,38.20
2019-04-06T19:49:26.903Z,42.53
2019-04-06T19:51:57.069Z,40.20
2019-04-06T19:54:26.864Z,40.60
2019-04-06T19:56:56.881Z,45.17
2019-04-06T19:59:26.717Z,42.00
2019-04-06T20:01:56.438Z,40.73
2019-04-06T20:04:26.102Z,40.83
2019-04-06T20:06:55.846Z,38.57
2019-04-06T20:09:25.308Z,40.40
2019-04-06T20:12:04.310Z,39.70
2019-04-06T20:14:25.545Z,40.27
2019-04-06T20:16:54.943Z,36.80
2019-04-06T20:19:25.160Z,40.70
2019-04-06T20:21:54.582Z,38.80
2019-04-06T20:24:23.897Z,39.13
2019-04-06T20:26:53.365Z,39.73
2019-04-06T20:29:22.594Z,43.43
2019-04-06T20:31:51.946Z,39.90
2019-04-06T20:34:21.230Z,42.10
2019-04-06T20:36:51.131Z,45.47
2019-04-06T20:39:20.500Z,43.70
2019-04-06T20:41:49.812Z,47.90
2019-04-06T20:44:19.177Z,49.67
2019-04-06T20:46:48.618Z,58.10
2019-04-06T20:49:17.998Z,64.83
2019-04-06T20:51:47.436Z,66.00
2019-04-06T20:54:16.694Z,60.77
2019-04-06T20:56:54.825Z,47.00
2019-04-06T20:59:17.082Z,38.43
2019-04-06T21:01:46.722Z,38.10
2019-04-06T21:04:16.645Z,37.70
2019-04-06T21:06:46.186Z,35.87
2019-04-06T21:09:15.724Z,35.37
2019-04-06T21:11:45.815Z,34.83
2019-04-06T21:14:15.630Z,34.23
2019-04-06T21:16:45.558Z,33.07
2019-04-06T21:19:15.823Z,33.27
2019-04-06T21:21:45.421Z,33.60
2019-04-06T21:24:14.792Z,34.07
2019-04-06T21:26:44.266Z,33.27
2019-04-06T21:29:13.754Z,34.77
2019-04-06T21:31:42.982Z,35.50
2019-04-06T21:34:14.720Z,34.57
2019-04-06T21:36:43.253Z,34.30
2019-04-06T21:39:12.364Z,32.43
2019-04-06T21:41:41.704Z,34.10
2019-04-06T21:44:11.263Z,35.10
2019-04-06T21:46:41.383Z,30.77
2019-04-06T21:49:11.533Z,33.03
2019-04-06T21:51:41.018Z,36.20
2019-04-06T21:54:10.276Z,33.50
2019-04-06T21:56:39.587Z,35.10
2019-04-06T21:59:08.872Z,32.57
2019-04-06T22:01:38.847Z,34.93
2019-04-06T22:04:08.251Z,34.60
2019-04-06T22:06:37.995Z,35.53
2019-04-06T22:09:12.597Z,33.53
2019-04-06T22:11:42.405Z,34.80
2019-04-06T22:14:11.779Z,34.90
2019-04-06T22:16:41.713Z,34.30
2019-04-06T22:19:12.043Z,35.17
2019-04-06T22:21:41.224Z,33.33
2019-04-06T22:24:10.957Z,33.23
2019-04-06T22:26:40.586Z,36.13
2019-04-06T22:29:09.856Z,34.87
2019-04-06T22:31:39.058Z,34.23
2019-04-06T22:34:08.269Z,35.60
2019-04-06T22:36:37.911Z,32.90
2019-04-06T22:39:09.010Z,35.43
2019-04-06T22:41:38.968Z,34.53
2019-04-06T22:44:08.575Z,36.20
2019-04-06T22:46:38.100Z,35.00
2019-04-06T22:49:07.858Z,33.40
2019-04-06T22:51:37.921Z,34.60
2019-04-06T22:54:08.072Z,34.73
2019-04-06T22:56:37.427Z,32.00
2019-04-06T22:59:07.403Z,37.10
2019-04-06T23:01:38.962Z,36.23
2019-04-06T23:04:20.373Z,35.80
2019-04-06T23:06:56.334Z,34.53
2019-04-06T23:09:25.793Z,35.63
2019-04-06T23:11:55.859Z,32.77
2019-04-06T23:14:25.257Z,36.07
2019-04-06T23:16:55.299Z,38.77
2019-04-06T23:19:24.751Z,39.17
2019-04-06T23:21:54.264Z,37.77
2019-04-06T23:24:23.689Z,36.83
2019-04-06T23:26:54.145Z,36.30
2019-04-06T23:29:23.764Z,37.87
2019-04-06T23:31:53.262Z,35.63
2019-04-06T23:34:22.566Z,36.10
2019-04-06T23:36:52.224Z,35.70
2019-04-06T23:39:22.134Z,35.60
2019-04-06T23:41:51.814Z,35.63
2019-04-06T23:44:21.212Z,35.83
2019-04-06T23:46:51.023Z,38.50
2019-04-06T23:49:20.323Z,36.70
2019-04-06T23:51:49.722Z,35.37
2019-04-06T23:54:19.256Z,36.40
2019-04-06T23:56:48.696Z,36.73
2019-04-06T23:59:18.781Z,35.77
